createdAt,value
2022-12-24T00:02:35.200Z,11.60
2022-12-24T00:06:38.324Z,11.60
2022-12-24T00:10:41.452Z,11.60
2022-12-24T00:14:45.867Z,11.60
2022-12-24T00:18:48.948Z,11.60
2022-12-24T00:22:52.096Z,11.60
2022-12-24T00:26:55.175Z,11.60
2022-12-24T00:31:09.949Z,11.60
2022-12-24T00:35:13.004Z,11.60
2022-12-24T00:39:16.148Z,11.60
2022-12-24T00:43:19.194Z,11.50
2022-12-24T00:47:23.646Z,11.50
2022-12-24T00:51:26.926Z,11.40
2022-12-24T00:55:30.122Z,11.40
2022-12-24T00:59:33.165Z,11.30
2022-12-24T01:03:37.784Z,11.20
2022-12-24T01:07:44.118Z,11.20
2022-12-24T01:11:52.709Z,11.10
2022-12-24T01:15:56.062Z,11.10
2022-12-24T01:20:02.446Z,11.10
2022-12-24T01:24:05.867Z,11.00
2022-12-24T01:28:08.914Z,11.00
2022-12-24T01:32:12.076Z,10.90
2022-12-24T01:36:17.058Z,10.90
2022-12-24T01:40:37.801Z,10.90
2022-12-24T01:44:43.361Z,10.90
2022-12-24T01:48:51.046Z,11.00
2022-12-24T01:52:55.699Z,10.90
2022-12-24T01:57:02.382Z,10.80
2022-12-24T02:01:06.203Z,10.60
2022-12-24T02:05:13.776Z,10.50
2022-12-24T02:09:18.493Z,10.50
2022-12-24T02:13:22.765Z,10.60
2022-12-24T02:17:32.902Z,10.60
2022-12-24T02:21:48.760Z,10.60
2022-12-24T02:26:15.207Z,10.60
2022-12-24T02:30:21.891Z,10.60
2022-12-24T02:34:32.541Z,10.60
2022-12-24T02:38:42.770Z,10.60
2022-12-24T02:42:50.210Z,10.50
2022-12-24T02:46:55.173Z,10.50
2022-12-24T02:51:04.955Z,10.50
2022-12-24T02:55:12.831Z,10.50
2022-12-24T02:59:36.386Z,10.40
2022-12-24T03:03:50.808Z,10.40
2022-12-24T03:08:03.703Z,10.40
2022-12-24T03:12:13.387Z,10.40
2022-12-24T03:16:20.576Z,10.50
2022-12-24T03:20:28.556Z,10.50
2022-12-24T03:24:31.599Z,10.60
2022-12-24T03:28:35.083Z,10.60
2022-12-24T03:32:42.858Z,10.60
2022-12-24T03:36:48.712Z,10.50
2022-12-24T03:40:51.785Z,10.50
2022-12-24T03:44:54.828Z,10.40
2022-12-24T03:48:59.029Z,10.40
2022-12-24T03:53:03.569Z,10.50
2022-12-24T03:57:06.743Z,10.60
2022-12-24T04:01:10.107Z,10.60
2022-12-24T04:05:16.330Z,10.60
2022-12-24T04:09:20.848Z,10.60
2022-12-24T04:13:23.999Z,10.60
2022-12-24T04:17:27.059Z,10.60
2022-12-24T04:21:30.202Z,10.60
2022-12-24T04:25:34.726Z,10.60
2022-12-24T04:29:38.015Z,10.40
2022-12-24T04:33:41.318Z,10.40
2022-12-24T04:37:44.341Z,10.30
2022-12-24T04:41:48.824Z,10.30
2022-12-24T04:45:51.908Z,10.30
2022-12-24T04:49:55.037Z,10.30
2022-12-24T04:53:59.144Z,10.30
2022-12-24T04:58:03.667Z,10.20
2022-12-24T05:02:06.868Z,10.20
2022-12-24T05:06:13.418Z,10.20
2022-12-24T05:10:16.675Z,10.20
2022-12-24T05:14:21.133Z,10.10
2022-12-24T05:18:24.849Z,10.10
2022-12-24T05:22:45.486Z,10.10
2022-12-24T05:26:51.277Z,10.10
2022-12-24T05:30:55.842Z,10.10
2022-12-24T05:34:59.019Z,10.20
2022-12-24T05:39:02.218Z,10.20
2022-12-24T05:43:05.270Z,10.20
2022-12-24T05:47:09.786Z,10.20
2022-12-24T05:51:15.715Z,10.20
2022-12-24T05:55:19.294Z,10.10
2022-12-24T05:59:22.468Z,10.10
2022-12-24T06:03:26.872Z,10.10
2022-12-24T06:07:30.093Z,10.10
2022-12-24T06:11:34.637Z,10.00
2022-12-24T06:15:37.842Z,10.00
2022-12-24T06:19:42.641Z,10.00
2022-12-24T06:23:47.139Z,10.00
2022-12-24T06:27:50.205Z,10.00
2022-12-24T06:31:53.372Z,10.00
2022-12-24T06:35:57.984Z,9.90
2022-12-24T06:40:01.348Z,9.90
2022-12-24T06:44:04.653Z,9.90
2022-12-24T06:48:08.288Z,9.90
2022-12-24T06:52:12.925Z,9.90
2022-12-24T06:56:16.306Z,9.80
2022-12-24T07:00:21.844Z,9.80
2022-12-24T07:04:25.031Z,9.80
2022-12-24T07:08:29.934Z,9.80
2022-12-24T07:12:33.177Z,9.90
2022-12-24T07:16:36.501Z,9.90
2022-12-24T07:20:39.632Z,9.90
2022-12-24T07:24:44.029Z,9.90
2022-12-24T07:28:48.985Z,10.00
2022-12-24T07:32:53.156Z,10.00
2022-12-24T07:36:56.257Z,10.10
2022-12-24T07:41:01.468Z,10.20
2022-12-24T07:45:05.020Z,10.20
2022-12-24T07:49:08.387Z,10.20
2022-12-24T07:53:11.602Z,10.30
2022-12-24T07:57:16.185Z,10.20
2022-12-24T08:01:19.571Z,10.10
2022-12-24T08:05:39.078Z,9.90
2022-12-24T08:09:42.158Z,9.90
2022-12-24T08:13:50.394Z,9.90
2022-12-24T08:17:53.513Z,10.00
2022-12-24T08:21:57.167Z,10.00
2022-12-24T08:26:00.419Z,10.10
2022-12-24T08:30:05.649Z,10.20
2022-12-24T08:34:09.670Z,10.20
2022-12-24T08:38:12.792Z,10.20
2022-12-24T08:42:16.022Z,10.30
2022-12-24T08:46:20.874Z,10.30
2022-12-24T08:50:24.080Z,10.30
2022-12-24T08:54:30.471Z,10.40
2022-12-24T08:58:33.908Z,10.30
2022-12-24T09:02:38.378Z,10.30
2022-12-24T09:06:41.582Z,10.30
2022-12-24T09:10:45.857Z,10.40
2022-12-24T09:14:52.422Z,10.30
2022-12-24T09:18:58.169Z,10.30
2022-12-24T09:23:12.214Z,10.40
2022-12-24T09:27:15.570Z,10.40
2022-12-24T09:31:23.086Z,10.40
2022-12-24T09:35:27.777Z,10.50
2022-12-24T09:39:31.029Z,10.60
2022-12-24T09:43:37.563Z,10.60
2022-12-24T09:47:44.151Z,10.70
2022-12-24T09:51:52.572Z,10.80
2022-12-24T09:55:59.518Z,10.90
2022-12-24T10:00:03.694Z,11.00
2022-12-24T10:04:13.620Z,11.10
2022-12-24T10:08:25.889Z,11.20
2022-12-24T10:12:36.479Z,11.30
2022-12-24T10:16:52.958Z,11.30
2022-12-24T10:21:04.256Z,11.40
2022-12-24T10:25:18.375Z,11.40
2022-12-24T10:29:24.808Z,11.40
2022-12-24T10:33:33.731Z,11.50
2022-12-24T10:37:36.803Z,11.50
2022-12-24T10:41:41.735Z,11.70
2022-12-24T10:45:48.680Z,11.90
2022-12-24T10:49:59.085Z,12.10
2022-12-24T10:54:08.078Z,12.30
2022-12-24T10:58:17.894Z,12.50
2022-12-24T11:02:29.545Z,12.70
2022-12-24T11:06:32.751Z,12.80
2022-12-24T11:10:41.087Z,12.70
2022-12-24T11:14:45.685Z,12.90
2022-12-24T11:18:52.290Z,12.90
2022-12-24T11:22:56.385Z,13.00
2022-12-24T11:27:24.856Z,13.10
2022-12-24T11:31:35.815Z,13.10
2022-12-24T11:35:43.601Z,13.10
2022-12-24T11:39:50.752Z,13.10
2022-12-24T11:44:03.509Z,13.20
2022-12-24T11:48:27.175Z,13.20
2022-12-24T11:52:31.916Z,13.10
2022-12-24T11:56:41.763Z,12.90
2022-12-24T12:00:46.639Z,12.70
2022-12-24T12:04:54.388Z,12.70
2022-12-24T12:09:00.760Z,12.70
2022-12-24T12:13:14.700Z,12.80
2022-12-24T12:17:28.498Z,12.90
2022-12-24T12:22:01.573Z,12.90
2022-12-24T12:26:11.585Z,12.80
2022-12-24T12:30:18.047Z,12.60
2022-12-24T12:34:37.857Z,12.50
2022-12-24T12:38:42.346Z,12.30
2022-12-24T12:42:54.054Z,12.30
2022-12-24T12:47:18.195Z,12.30
2022-12-24T12:51:27.228Z,12.30
2022-12-24T12:55:43.308Z,12.40
2022-12-24T12:59:52.578Z,12.50
2022-12-24T13:04:43.036Z,12.50
2022-12-24T13:09:08.188Z,12.50
2022-12-24T13:13:32.203Z,12.70
2022-12-24T13:17:54.178Z,12.80
2022-12-24T13:21:58.216Z,13.00
2022-12-24T13:26:12.255Z,13.10
2022-12-24T13:30:36.750Z,13.30
2022-12-24T13:34:41.402Z,13.20
2022-12-24T13:38:45.812Z,13.20
2022-12-24T13:42:52.224Z,13.10
2022-12-24T13:47:01.174Z,13.00
2022-12-24T13:51:26.051Z,12.80
2022-12-24T13:55:30.086Z,12.70
2022-12-24T13:59:38.948Z,12.50
2022-12-24T14:03:45.251Z,12.40
2022-12-24T14:07:51.350Z,12.20
2022-12-24T14:12:16.847Z,12.20
2022-12-24T14:16:21.818Z,12.30
2022-12-24T14:20:25.560Z,12.20
2022-12-24T14:24:35.657Z,12.20
2022-12-24T14:28:44.326Z,12.10
2022-12-24T14:32:48.554Z,11.90
2022-12-24T14:36:54.664Z,11.80
2022-12-24T14:41:07.503Z,11.70
2022-12-24T14:45:20.994Z,11.50
2022-12-24T14:49:35.318Z,11.50
2022-12-24T14:53:56.245Z,11.40
2022-12-24T14:58:28.519Z,11.40
2022-12-24T15:02:40.609Z,11.50
2022-12-24T15:06:49.421Z,11.50
2022-12-24T15:10:55.171Z,11.50
2022-12-24T15:15:00.206Z,11.40
2022-12-24T15:19:05.785Z,11.40
2022-12-24T15:23:20.161Z,11.30
2022-12-24T15:27:25.172Z,11.20
2022-12-24T15:31:31.279Z,11.10
2022-12-24T15:35:50.538Z,10.90
2022-12-24T15:39:56.855Z,10.70
2022-12-24T15:44:04.326Z,10.40
2022-12-24T15:48:12.523Z,10.20
2022-12-24T15:52:17.915Z,10.00
2022-12-24T15:56:32.483Z,9.90
2022-12-24T16:00:35.639Z,9.70
2022-12-24T16:04:40.095Z,9.60
2022-12-24T16:08:44.148Z,9.50
2022-12-24T16:12:47.249Z,9.40
2022-12-24T16:16:53.125Z,9.30
2022-12-24T16:20:58.420Z,9.20
2022-12-24T16:25:02.693Z,9.10
2022-12-24T16:29:05.961Z,9.00
2022-12-24T16:33:15.466Z,9.00
2022-12-24T16:37:20.100Z,9.00
2022-12-24T16:41:23.627Z,8.90
2022-12-24T16:45:26.835Z,8.90
2022-12-24T16:49:30.939Z,8.80
2022-12-24T16:53:35.403Z,8.70
2022-12-24T16:57:46.609Z,8.70
2022-12-24T17:01:51.876Z,8.60
2022-12-24T17:05:55.232Z,8.50
2022-12-24T17:09:59.812Z,8.50
2022-12-24T17:14:08.050Z,8.50
2022-12-24T17:18:11.554Z,8.40
2022-12-24T17:22:14.587Z,8.30
2022-12-24T17:26:19.164Z,8.20
2022-12-24T17:30:22.307Z,8.20
2022-12-24T17:34:25.517Z,8.20
2022-12-24T17:38:28.716Z,8.30
2022-12-24T17:42:33.205Z,8.30
2022-12-24T17:46:36.224Z,8.40
2022-12-24T17:50:40.893Z,8.50
2022-12-24T17:54:44.005Z,8.60
2022-12-24T17:58:48.595Z,8.60
2022-12-24T18:02:51.991Z,8.60
2022-12-24T18:07:02.081Z,8.70
2022-12-24T18:11:13.275Z,8.70
2022-12-24T18:15:21.224Z,8.70
2022-12-24T18:19:24.259Z,8.70
2022-12-24T18:23:27.280Z,8.60
2022-12-24T18:27:30.372Z,8.60
2022-12-24T18:31:35.253Z,8.60
2022-12-24T18:35:46.499Z,8.60
2022-12-24T18:39:49.657Z,8.60
2022-12-24T18:43:53.626Z,8.70
2022-12-24T18:47:58.184Z,8.70
2022-12-24T18:52:03.837Z,8.80
2022-12-24T18:56:08.615Z,8.90
2022-12-24T19:00:12.996Z,9.00
2022-12-24T19:04:17.641Z,9.10
2022-12-24T19:08:55.730Z,9.30
2022-12-24T19:12:43.979Z,9.40
2022-12-24T19:16:47.412Z,9.50
2022-12-24T19:20:52.468Z,9.60
2022-12-24T19:24:55.790Z,9.60
2022-12-24T19:28:58.854Z,9.60
2022-12-24T19:33:02.050Z,9.70
2022-12-24T19:37:06.668Z,9.70
2022-12-24T19:41:13.417Z,9.70
2022-12-24T19:45:16.884Z,9.70
2022-12-24T19:49:22.862Z,9.70
2022-12-24T19:53:27.448Z,9.70
2022-12-24T19:57:30.546Z,9.70
2022-12-24T20:01:36.173Z,9.70
2022-12-24T20:05:41.689Z,9.60
2022-12-24T20:09:46.433Z,9.60
2022-12-24T20:13:49.634Z,9.60
2022-12-24T20:17:59.612Z,9.60
2022-12-24T20:22:02.846Z,9.60
2022-12-24T20:26:08.562Z,9.60
2022-12-24T20:30:12.556Z,9.60
2022-12-24T20:34:15.817Z,9.60
2022-12-24T20:38:18.985Z,9.70
2022-12-24T20:42:23.565Z,9.70
2022-12-24T20:46:27.077Z,9.70
2022-12-24T20:50:30.210Z,9.70
2022-12-24T20:54:33.514Z,9.70
2022-12-24T20:58:38.065Z,9.70
2022-12-24T21:02:41.384Z,9.80
2022-12-24T21:06:44.801Z,9.80
2022-12-24T21:10:48.220Z,9.80
2022-12-24T21:14:52.840Z,9.80
2022-12-24T21:18:55.981Z,9.80
2022-12-24T21:23:01.254Z,9.70
2022-12-24T21:27:04.840Z,9.70
2022-12-24T21:31:11.836Z,9.60
2022-12-24T21:35:15.462Z,9.50
2022-12-24T21:39:18.588Z,9.50
2022-12-24T21:43:21.793Z,9.50
2022-12-24T21:47:26.608Z,9.50
2022-12-24T21:51:29.053Z,9.50
2022-12-24T21:55:38.422Z,9.50
2022-12-24T21:59:41.617Z,9.60
2022-12-24T22:03:49.382Z,9.60
2022-12-24T22:08:10.233Z,9.60
2022-12-24T22:12:13.451Z,9.50
2022-12-24T22:16:16.687Z,9.50
2022-12-24T22:20:21.241Z,9.50
2022-12-24T22:24:25.783Z,9.50
2022-12-24T22:28:30.000Z,9.50
2022-12-24T22:32:34.129Z,9.40
2022-12-24T22:36:38.884Z,9.40
2022-12-24T22:40:41.925Z,9.40
2022-12-24T22:44:45.033Z,9.40
2022-12-24T22:48:48.141Z,9.40
2022-12-24T22:52:54.021Z,9.40
2022-12-24T22:56:57.183Z,9.30
2022-12-24T23:01:01.042Z,9.30
2022-12-24T23:05:04.469Z,9.30
2022-12-24T23:09:11.164Z,9.20
2022-12-24T23:13:31.909Z,9.10
2022-12-24T23:17:34.939Z,9.00
2022-12-24T23:21:38.956Z,9.00
2022-12-24T23:25:43.568Z,9.00
2022-12-24T23:29:46.795Z,9.00
2022-12-24T23:33:50.533Z,8.90
2022-12-24T23:37:53.663Z,8.90
2022-12-24T23:41:58.123Z,8.90
2022-12-24T23:46:01.477Z,8.90
2022-12-24T23:50:05.081Z,8.90
2022-12-24T23:54:08.229Z,9.00
2022-12-24T23:58:15.329Z,9.00
